Time;durP1;ratioP1;P1;durP2;ratioP2;P2;SDS_P1;SDS_P2;PMS_P1;PMS_P2;Temp;Humidity;BMP_temperature;BMP_pressure;BME280_temperature;BME280_humidity;BME280_pressure;Samples;Min_cycle;Max_cycle;Signal;HPM_P1;HPM_P2
2021/08/16 00:02:06;;;;;;;14.60;8.20;;;;;;;20.19;82.31;99168.59;5098817;28;20546;-61
2021/08/16 00:04:32;;;;;;;15.70;7.85;;;;;;;20.15;82.82;99169.81;5120864;28;20070;-61
2021/08/16 00:06:58;;;;;;;11.30;7.50;;;;;;;20.15;83.12;99172.47;5107501;28;20075;-61
2021/08/16 00:09:24;;;;;;;12.90;8.45;;;;;;;20.03;83.66;99158.47;5128658;28;20043;-61
2021/08/16 00:11:50;;;;;;;13.80;7.95;;;;;;;20.10;83.66;99171.97;5100789;28;20048;-62
2021/08/16 00:14:16;;;;;;;12.48;8.10;;;;;;;20.07;84.23;99169.59;5126369;28;20065;-61
2021/08/16 00:16:42;;;;;;;12.18;8.10;;;;;;;20.02;84.66;99162.06;5127300;28;20066;-61
2021/08/16 00:19:08;;;;;;;14.23;7.80;;;;;;;20.01;86.31;99173.56;5077273;28;20108;-60
2021/08/16 00:21:34;;;;;;;10.45;8.18;;;;;;;19.99;86.00;99170.25;5114200;27;20039;-61
2021/08/16 00:24:00;;;;;;;9.15;7.97;;;;;;;19.98;86.46;99173.84;5123839;27;20502;-60
2021/08/16 00:26:26;;;;;;;12.55;7.80;;;;;;;19.97;86.54;99166.88;5123597;27;20517;-61
2021/08/16 00:28:51;;;;;;;11.27;8.40;;;;;;;19.96;87.89;99175.75;5130685;27;20070;-60
2021/08/16 00:31:17;;;;;;;12.88;8.57;;;;;;;19.94;87.50;99163.66;5133811;27;20126;-61
2021/08/16 00:33:45;;;;;;;12.27;8.43;;;;;;;19.93;87.53;99165.44;5107260;27;20130;-62
2021/08/16 00:36:11;;;;;;;12.60;8.70;;;;;;;19.93;87.47;99172.53;5095209;28;20043;-61
2021/08/16 00:38:37;;;;;;;10.38;8.90;;;;;;;19.91;87.49;99164.72;5129413;27;20409;-61
2021/08/16 00:41:03;;;;;;;11.90;8.38;;;;;;;19.91;87.64;99172.63;5115571;27;20066;-61
2021/08/16 00:43:28;;;;;;;12.48;8.70;;;;;;;19.90;88.26;99173.59;5130806;27;20228;-61
2021/08/16 00:45:55;;;;;;;13.32;9.32;;;;;;;19.78;88.12;99156.94;5084354;28;20035;-61
2021/08/16 00:48:20;;;;;;;15.50;9.07;;;;;;;19.88;88.42;99171.09;5120602;27;20035;-61
2021/08/16 00:50:46;;;;;;;15.32;9.52;;;;;;;19.87;88.58;99171.22;5132119;27;20049;-61
2021/08/16 00:53:15;;;;;;;13.30;9.27;;;;;;;19.86;88.92;99177.44;5095784;28;20131;-60
2021/08/16 00:55:41;;;;;;;17.45;10.70;;;;;;;19.84;89.49;99179.34;5103986;28;20506;-60
2021/08/16 00:58:06;;;;;;;17.60;10.85;;;;;;;19.81;89.75;99188.38;5126387;27;20043;-61
2021/08/16 01:00:32;;;;;;;13.50;10.68;;;;;;;19.80;89.84;99185.84;5130338;27;20039;-60
2021/08/16 01:02:59;;;;;;;19.48;10.50;;;;;;;19.78;89.96;99190.44;5134029;27;20042;-59
2021/08/16 01:05:24;;;;;;;13.30;9.38;;;;;;;19.66;90.29;99173.78;5113137;27;20444;-59
2021/08/16 01:07:50;;;;;;;13.45;9.40;;;;;;;19.74;90.83;99192.44;5127841;27;20042;-60
2021/08/16 01:10:17;;;;;;;12.23;9.32;;;;;;;19.73;90.91;99192.59;5081354;27;20047;-60
2021/08/16 01:12:43;;;;;;;12.82;9.63;;;;;;;19.70;91.18;99196.31;5125345;27;20054;-60
2021/08/16 01:15:11;;;;;;;14.60;9.32;;;;;;;19.68;91.71;99195.56;5121660;27;20517;-61
2021/08/16 01:17:41;;;;;;;12.63;8.82;;;;;;;19.65;92.23;99193.19;5098208;28;20161;-60
2021/08/16 01:20:11;;;;;;;12.85;9.00;;;;;;;19.65;92.36;99197.63;5112835;28;20029;-60
2021/08/16 01:22:37;;;;;;;13.50;8.55;;;;;;;19.63;92.19;99195.09;5122208;27;20053;-60
2021/08/16 01:25:06;;;;;;;16.00;8.32;;;;;;;19.63;92.43;99199.53;5112860;27;20099;-60
2021/08/16 01:27:32;;;;;;;12.50;9.13;;;;;;;19.61;92.60;99194.41;5113978;27;20043;-61
2021/08/16 01:30:00;;;;;;;15.15;8.90;;;;;;;19.60;93.12;99199.78;5122204;27;20046;-59
2021/08/16 01:32:26;;;;;;;14.30;9.32;;;;;;;19.59;93.15;99203.38;5130616;27;20506;-59
2021/08/16 01:34:52;;;;;;;14.52;8.48;;;;;;;19.59;93.12;99208.66;5132593;27;20130;-61
2021/08/16 01:37:18;;;;;;;12.07;8.10;;;;;;;19.48;92.94;99196.31;5132478;27;20126;-60
2021/08/16 01:39:44;;;;;;;14.10;9.23;;;;;;;19.59;93.07;99216.56;5111112;27;20127;-61
2021/08/16 01:42:10;;;;;;;10.75;8.60;;;;;;;19.56;93.36;99222.94;5094646;27;20081;-61
2021/08/16 01:44:36;;;;;;;13.25;9.38;;;;;;;19.53;93.94;99207.34;5131846;27;20102;-61
2021/08/16 01:47:01;;;;;;;15.20;9.20;;;;;;;19.50;94.08;99212.88;5111906;27;20150;-59
2021/08/16 01:49:27;;;;;;;15.57;9.77;;;;;;;19.46;94.48;99224.63;5116701;27;20049;-59
2021/08/16 01:51:53;;;;;;;10.35;8.93;;;;;;;19.45;94.61;99220.31;5112184;28;20039;-61
2021/08/16 01:54:19;;;;;;;12.38;9.43;;;;;;;19.33;94.70;99202.75;5126921;27;20070;-60
2021/08/16 01:56:45;;;;;;;12.07;9.73;;;;;;;19.43;95.09;99216.91;5112299;28;20419;-60
2021/08/16 01:59:12;;;;;;;13.20;9.93;;;;;;;19.40;95.71;99218.00;5123022;27;20134;-60
2021/08/16 02:01:37;;;;;;;13.20;9.73;;;;;;;19.37;95.81;99222.63;5114110;27;20388;-60
2021/08/16 02:04:03;;;;;;;16.98;10.50;;;;;;;19.35;96.24;99217.50;5129057;27;20163;-61
2021/08/16 02:06:30;;;;;;;13.90;10.38;;;;;;;19.33;96.59;99221.22;5132584;27;20035;-61
2021/08/16 02:08:56;;;;;;;12.70;9.60;;;;;;;19.32;96.43;99225.63;5129494;27;20042;-60
2021/08/16 02:11:23;;;;;;;13.07;10.52;;;;;;;19.29;96.41;99220.63;5131733;27;20039;-61
2021/08/16 02:13:50;;;;;;;16.10;10.02;;;;;;;19.29;96.81;99231.16;5129089;27;20134;-60
2021/08/16 02:16:16;;;;;;;17.70;9.55;;;;;;;19.18;96.81;99209.22;5131961;27;20126;-60
2021/08/16 02:18:42;;;;;;;14.23;9.70;;;;;;;19.29;96.48;99235.59;5119120;27;20122;-60
2021/08/16 02:21:07;;;;;;;12.82;9.55;;;;;;;19.27;96.45;99225.16;5131635;27;20054;-60
2021/08/16 02:23:35;;;;;;;16.38;10.80;;;;;;;19.25;96.46;99236.78;5132565;27;20042;-59
2021/08/16 02:26:01;;;;;;;16.63;10.07;;;;;;;19.21;97.25;99238.00;5124271;27;20041;-60
2021/08/16 02:28:27;;;;;;;16.40;10.65;;;;;;;19.19;97.40;99234.63;5096623;28;20035;-61
2021/08/16 02:30:54;;;;;;;16.65;11.00;;;;;;;19.21;97.45;99243.25;5112236;27;20126;-61
2021/08/16 02:33:20;;;;;;;17.55;9.95;;;;;;;19.21;97.46;99238.81;5117725;27;20051;-61
2021/08/16 02:35:45;;;;;;;14.23;9.80;;;;;;;19.20;97.79;99247.69;5132223;27;20088;-60
2021/08/16 02:38:12;;;;;;;19.42;10.50;;;;;;;19.18;97.78;99246.97;5130050;27;20043;-61
2021/08/16 02:40:38;;;;;;;17.58;10.50;;;;;;;19.19;97.87;99248.66;5113396;27;20074;-59
2021/08/16 02:43:04;;;;;;;14.05;9.55;;;;;;;19.21;97.82;99256.44;5090928;28;20437;-59
2021/08/16 02:45:30;;;;;;;15.95;9.60;;;;;;;19.21;97.68;99257.25;5100993;27;20030;-61
2021/08/16 02:47:57;;;;;;;15.25;9.70;;;;;;;19.22;97.70;99258.94;5131063;27;20043;-61
2021/08/16 02:50:23;;;;;;;16.38;9.98;;;;;;;19.04;97.29;99228.75;5131545;27;20091;-61
2021/08/16 02:52:49;;;;;;;20.05;10.55;;;;;;;19.22;97.46;99260.72;5130357;27;20054;-60
2021/08/16 02:55:14;;;;;;;15.65;10.23;;;;;;;19.24;97.53;99251.75;5131638;27;20047;-60
2021/08/16 02:57:40;;;;;;;14.65;9.88;;;;;;;19.24;97.72;99253.56;5131731;27;20034;-60
2021/08/16 03:00:07;;;;;;;14.65;9.85;;;;;;;19.22;97.93;99250.19;5129913;27;20047;-60
2021/08/16 03:02:33;;;;;;;16.00;10.60;;;;;;;19.21;97.83;99254.63;5129372;27;20031;-59
2021/08/16 03:04:59;;;;;;;13.32;10.00;;;;;;;19.22;97.80;99253.66;5122393;27;20053;-60
2021/08/16 03:07:25;;;;;;;17.00;10.20;;;;;;;19.21;97.86;99246.72;5131408;27;20046;-60
2021/08/16 03:09:50;;;;;;;15.40;9.85;;;;;;;19.26;97.63;99255.09;5119974;27;20403;-59
2021/08/16 03:12:18;;;;;;;15.98;9.82;;;;;;;19.30;97.16;99251.28;5118097;27;20031;-61
2021/08/16 03:14:44;;;;;;;12.55;9.95;;;;;;;19.34;96.98;99243.97;5119950;27;20138;-61
2021/08/16 03:17:10;;;;;;;17.38;10.55;;;;;;;19.29;96.82;99243.50;5092677;28;20042;-61
2021/08/16 03:19:36;;;;;;;17.00;10.48;;;;;;;19.37;96.63;99259.56;5111909;27;20505;-60
2021/08/16 03:22:02;;;;;;;17.15;11.18;;;;;;;19.38;96.32;99262.06;5123309;27;20050;-60
2021/08/16 03:24:31;;;;;;;12.65;9.63;;;;;;;19.42;96.68;99267.94;5120127;27;20471;-60
2021/08/16 03:26:59;;;;;;;13.85;10.18;;;;;;;19.44;96.49;99268.69;5115976;27;20039;-60
2021/08/16 03:29:25;;;;;;;16.05;10.52;;;;;;;19.45;96.31;99263.31;5112643;27;20030;-60
2021/08/16 03:31:51;;;;;;;16.63;10.23;;;;;;;19.48;96.18;99266.66;5120324;27;20418;-60
2021/08/16 03:34:17;;;;;;;17.27;9.95;;;;;;;19.53;95.94;99267.16;5114028;27;20066;-60
2021/08/16 03:36:43;;;;;;;16.58;10.82;;;;;;;19.56;95.87;99280.94;5122714;27;20550;-60
2021/08/16 03:39:09;;;;;;;16.42;10.20;;;;;;;19.59;95.63;99282.50;5126322;27;20042;-60
2021/08/16 03:41:35;;;;;;;13.52;10.10;;;;;;;19.61;95.62;99285.88;5129922;27;20517;-60
2021/08/16 03:44:01;;;;;;;15.35;10.32;;;;;;;19.63;95.83;99290.03;5112743;27;20092;-61
2021/08/16 03:46:27;;;;;;;15.20;9.98;;;;;;;19.67;95.78;99293.31;5112276;28;20461;-61
2021/08/16 03:48:52;;;;;;;15.77;10.07;;;;;;;19.67;95.29;99288.03;5112060;28;20059;-60
2021/08/16 03:51:18;;;;;;;13.57;10.45;;;;;;;19.69;95.11;99288.72;5098184;28;20507;-60
2021/08/16 03:53:44;;;;;;;15.32;10.60;;;;;;;19.72;94.72;99296.44;5115838;28;20147;-60
2021/08/16 03:56:11;;;;;;;15.32;10.13;;;;;;;19.77;94.34;99294.25;5130597;28;20039;-59
2021/08/16 03:58:41;;;;;;;16.05;10.18;;;;;;;19.80;93.65;99294.84;5130387;28;20070;-61
2021/08/16 04:01:11;;;;;;;16.63;10.35;;;;;;;19.83;93.28;99292.00;5124030;28;20631;-62
2021/08/16 04:03:39;;;;;;;12.65;9.70;;;;;;;19.86;92.87;99297.03;5110374;28;20141;-59
2021/08/16 04:06:05;;;;;;;14.98;9.65;;;;;;;19.88;92.60;99302.19;5110217;28;20035;-61
2021/08/16 04:08:33;;;;;;;17.15;10.48;;;;;;;19.96;92.06;99315.59;5115652;28;20083;-60
2021/08/16 04:10:59;;;;;;;22.20;10.38;;;;;;;20.05;91.66;99320.16;5130883;28;20038;-61
2021/08/16 04:13:26;;;;;;;14.32;9.68;;;;;;;20.12;91.35;99325.78;5123211;28;20047;-62
2021/08/16 04:15:51;;;;;;;15.07;10.27;;;;;;;20.14;90.51;99315.94;5111226;28;20046;-60
2021/08/16 04:18:17;;;;;;;14.57;10.18;;;;;;;20.18;90.19;99320.88;5110908;28;20043;-63
2021/08/16 04:20:43;;;;;;;13.38;9.50;;;;;;;20.25;89.81;99329.97;5114994;28;20035;-62
2021/08/16 04:23:09;;;;;;;20.75;9.25;;;;;;;20.30;89.45;99319.06;5129147;28;20417;-62
2021/08/16 04:25:38;;;;;;;15.55;9.65;;;;;;;20.35;89.11;99321.34;5120006;28;20052;-61
2021/08/16 04:28:04;;;;;;;12.18;9.20;;;;;;;20.33;89.22;99324.09;5127232;28;20084;-61
2021/08/16 04:30:29;;;;;;;15.10;8.77;;;;;;;20.34;88.72;99319.66;5105229;28;20052;-62
2021/08/16 04:32:55;;;;;;;14.65;8.80;;;;;;;20.35;88.59;99318.72;5110074;28;20044;-59
2021/08/16 04:35:21;;;;;;;14.32;9.43;;;;;;;20.39;88.24;99320.13;5112294;28;20043;-62
2021/08/16 04:37:48;;;;;;;13.32;9.05;;;;;;;20.49;87.65;99315.78;5128112;28;20402;-61
2021/08/16 04:40:14;;;;;;;12.35;9.52;;;;;;;20.46;87.29;99313.41;5118730;28;20039;-60
2021/08/16 04:42:40;;;;;;;13.73;9.45;;;;;;;20.62;87.00;99321.78;5110512;28;20032;-61
2021/08/16 04:45:09;;;;;;;14.02;8.88;;;;;;;20.70;86.79;99316.69;5117086;28;20464;-57
2021/08/16 04:47:35;;;;;;;12.68;8.90;;;;;;;20.74;86.33;99312.81;5102609;28;20045;-61
2021/08/16 04:50:01;;;;;;;16.50;8.68;;;;;;;20.77;85.61;99309.09;5109149;28;20123;-60
2021/08/16 04:52:26;;;;;;;10.95;8.73;;;;;;;20.82;85.27;99314.84;5129346;28;20567;-61
2021/08/16 04:54:52;;;;;;;15.32;8.57;;;;;;;20.89;84.51;99308.91;5129547;28;20046;-60
2021/08/16 04:57:29;;;;;;;10.10;8.07;;;;;;;20.99;84.20;99312.47;5125711;28;20049;-61
2021/08/16 04:59:55;;;;;;;12.70;7.95;;;;;;;21.06;83.65;99305.72;5109636;28;20486;-61
2021/08/16 05:02:21;;;;;;;12.30;8.52;;;;;;;21.17;83.19;99307.50;5127549;28;20035;-61
2021/08/16 05:04:49;;;;;;;14.05;7.55;;;;;;;21.23;81.98;99311.44;5114223;27;21209;-60
2021/08/16 05:07:14;;;;;;;11.48;7.78;;;;;;;21.33;81.24;99314.97;5133211;27;20053;-58
2021/08/16 05:09:40;;;;;;;12.77;8.20;;;;;;;21.42;80.43;99314.19;5103034;27;20484;-62
2021/08/16 05:12:06;;;;;;;14.63;7.95;;;;;;;21.51;79.11;99316.06;5116349;27;20111;-60
2021/08/16 05:14:32;;;;;;;11.88;7.05;;;;;;;21.55;78.44;99320.97;5121121;27;20118;-61
2021/08/16 05:16:58;;;;;;;11.95;6.45;;;;;;;21.65;77.43;99312.25;5094504;28;20131;-61
2021/08/16 05:19:24;;;;;;;11.43;8.27;;;;;;;21.73;76.02;99325.63;5118419;27;20092;-61
2021/08/16 05:21:50;;;;;;;10.00;7.25;;;;;;;21.82;75.93;99320.41;5109784;27;20514;-61
2021/08/16 05:24:15;;;;;;;9.95;7.10;;;;;;;21.98;75.26;99328.72;5124859;27;20138;-61
2021/08/16 05:26:41;;;;;;;10.75;7.05;;;;;;;22.13;74.76;99320.44;5095647;28;20502;-59
2021/08/16 05:29:07;;;;;;;10.27;7.47;;;;;;;22.20;73.98;99308.31;5114132;27;20039;-62
2021/08/16 05:31:33;;;;;;;9.77;6.88;;;;;;;22.39;72.09;99326.91;5111416;27;20475;-61
2021/08/16 05:33:58;;;;;;;13.27;7.22;;;;;;;22.49;72.52;99327.75;5132727;27;20125;-62
2021/08/16 05:36:24;;;;;;;9.55;6.60;;;;;;;22.63;72.22;99321.22;5129984;27;20126;-61
2021/08/16 05:38:50;;;;;;;9.98;6.57;;;;;;;22.74;70.29;99323.78;5127395;27;20093;-61
2021/08/16 05:41:16;;;;;;;13.68;6.68;;;;;;;22.79;69.24;99329.50;5117303;27;20047;-62
2021/08/16 05:43:42;;;;;;;9.95;6.07;;;;;;;22.80;65.81;99312.63;5133101;27;20143;-62
2021/08/16 05:46:08;;;;;;;9.57;5.80;;;;;;;22.94;65.14;99319.31;5125550;27;20506;-61
2021/08/16 05:48:34;;;;;;;9.20;5.63;;;;;;;23.07;65.85;99322.53;5117458;27;20039;-62
2021/08/16 05:51:00;;;;;;;10.00;5.57;;;;;;;23.22;65.21;99329.91;5132693;27;20092;-61
2021/08/16 05:53:25;;;;;;;10.32;5.88;;;;;;;23.30;63.54;99329.19;5132884;27;20042;-61
2021/08/16 05:55:51;;;;;;;11.63;5.80;;;;;;;23.37;62.82;99330.31;5124318;27;20138;-60
2021/08/16 05:58:17;;;;;;;11.75;6.40;;;;;;;23.43;62.02;99323.59;5095516;27;20044;-60
2021/08/16 06:00:43;;;;;;;8.55;6.30;;;;;;;23.53;62.32;99333.25;5132256;27;20130;-60
2021/08/16 06:03:09;;;;;;;11.30;6.05;;;;;;;23.71;62.55;99337.81;5132691;27;20035;-61
2021/08/16 06:05:34;;;;;;;9.15;6.13;;;;;;;23.75;61.59;99332.06;5114364;27;20121;-60
2021/08/16 06:08:00;;;;;;;10.35;6.78;;;;;;;23.77;60.46;99322.13;5114136;27;20042;-61
2021/08/16 06:10:26;;;;;;;12.55;5.95;;;;;;;23.98;60.43;99341.34;5131882;27;20069;-60
2021/08/16 06:12:52;;;;;;;11.02;6.80;;;;;;;23.96;59.87;99321.22;5127036;27;20046;-63
2021/08/16 06:15:18;;;;;;;7.18;5.95;;;;;;;24.04;60.42;99322.16;5109814;28;20066;-63
2021/08/16 06:17:44;;;;;;;11.95;5.95;;;;;;;24.28;60.13;99337.63;5111264;28;20063;-62
2021/08/16 06:20:11;;;;;;;12.15;6.05;;;;;;;24.39;58.73;99332.06;5107900;27;20165;-61
2021/08/16 06:22:38;;;;;;;11.07;5.60;;;;;;;24.51;57.46;99311.44;5132180;27;20031;-62
2021/08/16 06:25:04;;;;;;;9.40;5.70;;;;;;;25.27;55.29;99343.78;5132126;27;20606;-63
2021/08/16 06:27:30;;;;;;;8.95;5.50;;;;;;;25.92;53.41;99339.75;5118987;27;20050;-62
2021/08/16 06:29:56;;;;;;;10.80;5.65;;;;;;;26.77;50.09;99337.91;5125024;27;20031;-63
2021/08/16 06:32:21;;;;;;;9.90;5.65;;;;;;;27.31;49.10;99342.66;5118030;27;20054;-63
2021/08/16 06:34:49;;;;;;;11.32;6.25;;;;;;;28.16;48.17;99357.22;5129016;27;20045;-64
2021/08/16 06:37:15;;;;;;;11.73;6.35;;;;;;;28.87;45.49;99344.69;5132431;27;20039;-65
2021/08/16 06:39:40;;;;;;;9.02;5.38;;;;;;;29.74;43.82;99352.16;5129445;27;20417;-61
2021/08/16 06:42:09;;;;;;;8.55;5.72;;;;;;;30.62;41.11;99356.69;5127452;27;20454;-63
2021/08/16 06:44:36;;;;;;;9.18;5.53;;;;;;;31.40;40.23;99356.69;5123777;27;20062;-63
2021/08/16 06:47:03;;;;;;;8.40;5.65;;;;;;;32.05;38.79;99355.50;5116789;27;20035;-62
2021/08/16 06:49:30;;;;;;;10.57;5.97;;;;;;;32.74;36.94;99360.84;5118496;27;20040;-63
2021/08/16 06:51:55;;;;;;;7.47;5.35;;;;;;;33.40;36.09;99356.38;5118166;27;20044;-65
2021/08/16 06:54:23;;;;;;;11.02;5.63;;;;;;;33.70;34.17;99356.84;5119267;27;20114;-64
2021/08/16 06:56:50;;;;;;;11.00;5.65;;;;;;;33.94;34.38;99344.53;5103621;27;20030;-66
2021/08/16 06:59:16;;;;;;;8.98;5.80;;;;;;;34.61;32.58;99352.22;5104188;27;20027;-69
2021/08/16 07:01:43;;;;;;;11.68;5.38;;;;;;;34.80;31.40;99358.59;5119524;27;20501;-67
2021/08/16 07:04:09;;;;;;;8.93;5.22;;;;;;;34.96;30.99;99359.94;5099275;27;20172;-70
2021/08/16 07:06:35;;;;;;;11.88;6.00;;;;;;;35.20;30.76;99357.31;5117652;27;20126;-70
2021/08/16 07:09:01;;;;;;;11.45;6.20;;;;;;;35.41;30.81;99336.34;5128736;27;20042;-68
2021/08/16 07:11:26;;;;;;;10.02;6.05;;;;;;;36.44;29.88;99337.34;5089068;27;20054;-68
2021/08/16 07:13:52;;;;;;;9.95;6.18;;;;;;;37.19;28.23;99354.06;5100676;28;20039;-68
2021/08/16 07:16:20;;;;;;;10.75;6.05;;;;;;;37.16;27.42;99365.38;5112570;27;20120;-70
2021/08/16 07:18:46;;;;;;;;;;;;;;;37.58;27.32;99355.34;5101728;27;20132;-69
2021/08/16 07:21:12;;;;;;;8.32;5.90;;;;;;;37.94;26.53;99352.38;5121316;27;19966;-69
2021/08/16 07:23:38;;;;;;;9.93;5.85;;;;;;;38.63;25.71;99349.78;5114391;27;20039;-70
2021/08/16 07:26:05;;;;;;;11.43;5.47;;;;;;;38.82;23.52;99368.34;5127854;27;20035;-59
2021/08/16 07:28:32;;;;;;;15.73;5.88;;;;;;;38.68;24.45;99361.53;5092293;27;20047;-62
2021/08/16 07:30:59;;;;;;;10.25;5.80;;;;;;;38.50;24.51;99375.31;5117169;27;20418;-65
2021/08/16 07:33:25;;;;;;;8.68;5.15;;;;;;;38.03;24.12;99363.72;5122634;27;20054;-60
2021/08/16 07:35:51;;;;;;;9.00;5.10;;;;;;;38.27;23.82;99367.19;5103855;27;20134;-61
2021/08/16 07:38:17;;;;;;;9.32;5.57;;;;;;;38.31;24.04;99369.22;5103549;27;20047;-61
2021/08/16 07:40:43;;;;;;;8.27;5.25;;;;;;;38.85;23.35;99367.03;5116774;27;20092;-62
2021/08/16 07:43:09;;;;;;;9.45;5.50;;;;;;;39.16;23.03;99371.97;5112167;27;20104;-62
2021/08/16 07:45:35;;;;;;;7.90;5.35;;;;;;;38.80;23.54;99362.31;5113018;27;20521;-63
2021/08/16 07:48:03;;;;;;;10.57;5.65;;;;;;;39.01;23.46;99349.13;5111713;28;20095;-60
2021/08/16 07:50:30;;;;;;;9.20;5.63;;;;;;;39.64;23.43;99357.81;5120965;27;20034;-59
2021/08/16 07:52:55;;;;;;;7.88;5.82;;;;;;;40.94;21.80;99348.06;5096315;28;20032;-59
2021/08/16 07:55:21;;;;;;;11.88;6.00;;;;;;;40.51;22.11;99351.69;5116900;28;20043;-61
2021/08/16 07:57:47;;;;;;;9.98;5.55;;;;;;;40.71;21.97;99359.28;5119027;28;20108;-59
2021/08/16 08:00:13;;;;;;;8.45;5.45;;;;;;;40.62;21.79;99351.56;5110548;28;20035;-58
2021/08/16 08:02:47;;;;;;;5.95;5.40;;;;;;;41.06;21.06;99348.75;5126880;28;20602;-61
2021/08/16 08:05:15;;;;;;;7.97;5.28;;;;;;;40.98;20.88;99355.47;5123046;28;20544;-61
2021/08/16 08:07:42;;;;;;;7.55;5.40;;;;;;;40.72;21.08;99355.50;5098208;28;20047;-62
2021/08/16 08:10:09;;;;;;;10.45;6.05;;;;;;;40.68;20.59;99351.63;5107214;28;20529;-61
2021/08/16 08:12:35;;;;;;;11.13;5.70;;;;;;;40.68;20.93;99344.25;5103457;28;20054;-60
2021/08/16 08:15:02;;;;;;;9.85;5.45;;;;;;;40.54;20.49;99356.63;5102552;28;20042;-63
2021/08/16 08:17:28;;;;;;;6.70;4.93;;;;;;;39.07;22.02;99326.38;5129876;28;20035;-63
2021/08/16 08:19:55;;;;;;;10.35;5.15;;;;;;;38.00;23.55;99343.28;5118928;28;20040;-61
2021/08/16 08:22:23;;;;;;;14.63;5.25;;;;;;;38.62;23.05;99332.63;5128057;28;20180;-61
2021/08/16 08:24:49;;;;;;;10.60;5.38;;;;;;;39.13;22.38;99347.16;5118062;28;20036;-58
2021/08/16 08:27:15;;;;;;;7.55;5.05;;;;;;;38.60;23.10;99333.94;5074549;28;20415;-59
2021/08/16 08:29:42;;;;;;;8.07;5.32;;;;;;;37.96;23.24;99335.81;5109713;28;20046;-59
2021/08/16 08:32:08;;;;;;;9.07;5.32;;;;;;;37.09;24.38;99337.53;5120684;28;20430;-58
2021/08/16 08:34:34;;;;;;;7.80;5.20;;;;;;;36.87;24.58;99334.50;5129392;28;20043;-59
2021/08/16 08:37:01;;;;;;;7.60;5.38;;;;;;;37.09;25.32;99332.94;5102663;28;20036;-68
2021/08/16 08:39:27;;;;;;;7.93;5.25;;;;;;;38.40;23.81;99329.72;5098329;28;20462;-66
2021/08/16 08:41:57;;;;;;;10.95;5.22;;;;;;;37.86;23.33;99339.16;5103068;27;20156;-63
2021/08/16 08:44:24;;;;;;;5.90;3.83;;;;;;;36.26;25.08;99329.28;5130933;27;20039;-63
2021/08/16 08:46:50;;;;;;;8.90;5.03;;;;;;;35.37;26.11;99341.38;5123497;27;20038;-66
2021/08/16 08:49:16;;;;;;;6.95;4.40;;;;;;;34.70;26.97;99326.63;5112652;27;20524;-64
2021/08/16 08:51:42;;;;;;;5.65;4.55;;;;;;;34.80;27.24;99347.78;5121814;27;20122;-59
2021/08/16 08:54:09;;;;;;;7.10;4.75;;;;;;;35.37;26.68;99345.94;5104267;27;20084;-62
2021/08/16 08:56:35;;;;;;;8.23;4.55;;;;;;;35.84;25.47;99344.50;5094666;28;20035;-64
2021/08/16 08:59:01;;;;;;;7.18;4.88;;;;;;;36.03;26.01;99344.28;5114024;27;20051;-62
2021/08/16 09:01:27;;;;;;;6.32;4.57;;;;;;;36.24;25.53;99348.44;5112614;27;20421;-60
2021/08/16 09:03:55;;;;;;;7.32;4.80;;;;;;;36.54;25.40;99334.94;5100008;28;20031;-61
2021/08/16 09:06:31;;;;;;;6.68;4.55;;;;;;;36.53;25.98;99335.19;5128414;27;20058;-60
2021/08/16 09:08:58;;;;;;;6.07;4.82;;;;;;;36.47;26.04;99339.63;5118560;27;20043;-59
2021/08/16 09:11:25;;;;;;;8.98;5.55;;;;;;;36.65;25.68;99334.19;5102072;27;20559;-59
2021/08/16 09:13:56;;;;;;;12.45;5.35;;;;;;;37.90;24.36;99336.78;5122038;27;20493;-59
2021/08/16 09:16:22;;;;;;;5.97;4.95;;;;;;;39.71;22.81;99350.31;5131577;27;20043;-60
2021/08/16 09:18:50;;;;;;;12.85;5.78;;;;;;;40.42;22.00;99358.66;5121691;27;20050;-60
2021/08/16 09:21:31;;;;;;;7.13;4.72;;;;;;;39.45;22.01;99342.84;5120650;27;20506;-62
2021/08/16 09:23:59;;;;;;;6.47;5.15;;;;;;;39.12;22.55;99338.19;5119617;27;20046;-62
2021/08/16 09:26:28;;;;;;;7.55;5.55;;;;;;;39.27;22.27;99345.75;5117647;27;20835;-59
2021/08/16 09:28:55;;;;;;;6.70;5.13;;;;;;;39.70;22.42;99336.94;5099798;27;20043;-61
2021/08/16 09:31:24;;;;;;;8.80;6.18;;;;;;;40.82;20.47;99344.69;5105702;27;20119;-59
2021/08/16 09:34:00;;;;;;;8.05;5.97;;;;;;;40.83;21.04;99352.59;5115320;27;20043;-60
2021/08/16 09:36:37;;;;;;;5.87;5.30;;;;;;;40.14;21.31;99338.69;5117007;27;20040;-62
2021/08/16 09:39:15;;;;;;;6.95;5.05;;;;;;;40.53;20.87;99347.63;5111827;27;20042;-60
2021/08/16 09:41:41;;;;;;;8.07;5.43;;;;;;;40.62;21.30;99343.38;5094209;28;20051;-60
2021/08/16 09:44:14;;;;;;;5.32;4.82;;;;;;;40.33;21.31;99352.84;5100957;27;20051;-59
2021/08/16 09:46:41;;;;;;;6.97;5.25;;;;;;;40.32;21.30;99329.38;5103042;27;20039;-60
2021/08/16 09:49:08;;;;;;;4.63;3.95;;;;;;;40.80;20.87;99335.94;5099617;27;20042;-60
2021/08/16 09:51:35;;;;;;;5.32;4.18;;;;;;;39.48;22.48;99344.22;5118885;27;20057;-60
2021/08/16 09:54:02;;;;;;;9.80;4.95;;;;;;;39.51;22.38;99338.31;5116553;27;20054;-61
2021/08/16 09:56:29;;;;;;;6.40;5.75;;;;;;;38.29;23.49;99341.47;5123992;27;20045;-59
2021/08/16 09:58:55;;;;;;;5.70;4.50;;;;;;;38.25;23.46;99336.75;5122076;27;20123;-61
2021/08/16 10:01:22;;;;;;;5.50;5.03;;;;;;;38.58;22.81;99333.38;5105550;27;20046;-58
2021/08/16 10:03:48;;;;;;;7.25;5.55;;;;;;;40.15;21.47;99340.31;5107435;27;20039;-59
2021/08/16 10:06:18;;;;;;;8.65;5.25;;;;;;;41.61;20.68;99340.22;5098456;28;20403;-58
2021/08/16 10:08:53;;;;;;;7.50;5.63;;;;;;;42.21;20.09;99344.38;5092842;27;20040;-58
2021/08/16 10:11:20;;;;;;;6.78;6.07;;;;;;;42.25;19.96;99348.22;5119179;27;20039;-59
2021/08/16 10:13:49;;;;;;;11.73;5.90;;;;;;;41.86;19.99;99353.22;5102966;27;20045;-59
2021/08/16 10:16:18;;;;;;;6.15;5.10;;;;;;;40.82;20.65;99337.34;5132193;27;20038;-58
2021/08/16 10:18:50;;;;;;;6.72;6.05;;;;;;;41.76;20.25;99334.88;5113157;27;20121;-61
2021/08/16 10:21:21;;;;;;;10.10;6.15;;;;;;;41.91;20.12;99345.06;5131289;27;20035;-61
2021/08/16 10:23:50;;;;;;;7.65;5.50;;;;;;;41.02;20.21;99342.97;5117534;27;20093;-62
2021/08/16 10:26:27;;;;;;;6.05;5.47;;;;;;;40.95;20.22;99344.25;5110087;28;20100;-63
2021/08/16 10:28:54;;;;;;;6.30;5.70;;;;;;;41.54;20.04;99334.16;5093299;28;20517;-60
2021/08/16 10:31:28;;;;;;;6.22;5.63;;;;;;;41.73;19.22;99335.38;5101986;27;20039;-68
2021/08/16 10:33:55;;;;;;;7.82;5.13;;;;;;;41.25;20.15;99328.19;5123606;27;20039;-59
2021/08/16 10:36:21;;;;;;;6.53;5.90;;;;;;;41.64;19.38;99330.69;5099306;28;20047;-56
2021/08/16 10:39:00;;;;;;;5.88;5.32;;;;;;;41.69;19.12;99328.81;5120467;27;20129;-63
2021/08/16 10:41:42;;;;;;;8.35;5.40;;;;;;;41.64;19.41;99325.22;5116851;27;20059;-57
2021/08/16 10:44:12;;;;;;;6.00;5.47;;;;;;;41.25;19.87;99325.44;5114726;27;20088;-64
2021/08/16 10:46:38;;;;;;;6.70;5.60;;;;;;;41.18;19.34;99319.41;5111182;28;20042;-59
2021/08/16 10:49:06;;;;;;;5.57;5.05;;;;;;;40.88;19.69;99322.66;5110885;28;20130;-63
2021/08/16 10:51:58;;;;;;;5.72;5.22;;;;;;;40.79;20.02;99321.47;5112920;27;20032;-61
2021/08/16 10:54:26;;;;;;;6.20;5.53;;;;;;;41.47;19.43;99310.91;5119851;27;20043;-59
2021/08/16 10:56:54;;;;;;;5.70;5.15;;;;;;;42.10;19.10;99310.72;5130421;27;20421;-62
2021/08/16 10:59:25;;;;;;;6.15;5.30;;;;;;;41.77;18.80;99314.63;5112231;27;20796;-59
2021/08/16 11:01:52;;;;;;;6.13;5.28;;;;;;;41.03;19.63;99287.34;5111160;28;20499;-60
2021/08/16 11:04:29;;;;;;;6.07;5.57;;;;;;;41.48;19.66;99307.09;5111601;27;20130;-62
2021/08/16 11:06:59;;;;;;;5.90;5.22;;;;;;;41.88;19.18;99301.06;5122639;27;20036;-61
2021/08/16 11:09:27;;;;;;;5.68;4.13;;;;;;;40.23;19.84;99287.31;5125442;27;20047;-62
2021/08/16 11:12:00;;;;;;;6.65;5.72;;;;;;;38.76;21.52;99298.66;5130560;27;20035;-59
2021/08/16 11:14:26;;;;;;;9.15;5.45;;;;;;;39.67;20.85;99289.28;5130327;27;20038;-61
2021/08/16 11:16:53;;;;;;;6.70;5.10;;;;;;;40.08;20.28;99287.94;5112943;27;20102;-61
2021/08/16 11:19:20;;;;;;;7.13;5.03;;;;;;;40.01;20.53;99298.19;5130281;27;20579;-59
2021/08/16 11:22:00;;;;;;;5.70;5.00;;;;;;;40.40;19.52;99301.69;5130608;27;20641;-58
2021/08/16 11:24:34;;;;;;;6.65;4.93;;;;;;;40.27;20.33;99293.06;5119839;27;20502;-59
2021/08/16 11:27:09;;;;;;;6.57;5.10;;;;;;;40.16;20.41;99283.94;5119464;27;20047;-66